Dades meteomassalio
Diari Summary for Juliol 24, 2017 Units:  English    Metric   Both
« Previous Day
Next Day »
Diari Semanal Mensual Anual Personalitzat
  Maxima: Minima: Mijana:
Temperatura: TemperatureC °F 19.3 °F 23.5 °F
Rosada: DewpointC °F 11.6 °F 14.1 °F
Humitat: Humidity % 36 % 57 %
Velocitat del vent: WindSpeedKMH mph 0.0 mph 29.7 mph
Racha vent: WindSpeedGustKMH mph - -
Vent:- - WNW
Pressio: PressurehPa in 1015.5 in -
Pluja: 0.0 in    
Historical Graphs
 
 
Tabular Data for Juliol 24, 2017
Time Temperature Dew Point Pressure Wind Wind Speed Wind Gust Humidity Rainfall Rate (Hourly) solar Conditions
TemperatureC °F DewpointC °F PressurehPa in Calm     Humidity % HourlyPrecipMM in SolarRadiationWatts/m^2 W/m2 Conditions
00:04 19.6 °F 17.7 °F 1017.2 in Calm     89 % 0.0 in 0.0 W/m2 RA
00:09 19.6 °F 17.7 °F 1017.2 in Calm     89 % 0.0 in 0.0 W/m2 CLR
00:14 19.7 °F 17.8 °F 1017.2 in Calm     89 % 0.0 in 0.0 W/m2 CLR
00:19 19.7 °F 17.7 °F 1017.2 in Calm     88 % 0.0 in 0.0 W/m2 CLR
00:24 19.8 °F 17.7 °F 1017.2 in Calm     88 % 0.0 in 0.0 W/m2 CLR
00:29 19.8 °F 17.6 °F 1017.5 in Calm     87 % 0.0 in 0.0 W/m2 CLR
00:34 19.8 °F 17.4 °F 1017.5 in Calm     86 % 0.0 in 0.0 W/m2 CLR
00:39 19.9 °F 17.3 °F 1017.5 in Calm     85 % 0.0 in 0.0 W/m2 CLR
00:44 20.1 °F 17.3 °F 1017.5 in Calm     84 % 0.0 in 0.0 W/m2 CLR
00:49 20.3 °F 16.6 °F 1017.5 in WNW 9.3 mph 9.3 mph 79 % 0.0 in 0.0 W/m2 CLR
00:54 21.4 °F 15.7 °F 1017.8 in WNW 16.7 mph 16.7 mph 70 % 0.0 in 0.0 W/m2 CLR
00:59 22.2 °F 15.6 °F 1017.8 in WNW 13.0 mph 13.0 mph 66 % 0.0 in 0.0 W/m2 CLR
01:04 22.6 °F 15.4 °F 1017.8 in WNW 14.8 mph 14.8 mph 64 % 0.0 in 0.0 W/m2 CLR
01:09 22.7 °F 15.3 °F 1017.8 in West 19.3 mph 19.3 mph 63 % 0.0 in 0.0 W/m2 CLR
01:14 22.8 °F 14.4 °F 1017.8 in WNW 25.7 mph 25.7 mph 59 % 0.0 in 0.0 W/m2 CLR
01:19 22.8 °F 13.9 °F 1017.8 in WNW 19.3 mph 19.3 mph 57 % 0.0 in 0.0 W/m2 CLR
01:24 22.7 °F 13.4 °F 1017.8 in West 27.4 mph 27.4 mph 56 % 0.0 in 0.0 W/m2 CLR
01:29 22.5 °F 13.3 °F 1017.8 in West 24.1 mph 24.1 mph 56 % 0.0 in 0.0 W/m2 CLR
01:34 22.4 °F 13.2 °F 1017.8 in WSW 24.1 mph 24.1 mph 56 % 0.0 in 0.0 W/m2 CLR
01:39 22.3 °F 13.1 °F 1017.8 in West 29.0 mph 29.0 mph 56 % 0.0 in 0.0 W/m2 CLR
01:44 22.2 °F 12.9 °F 1017.8 in West 25.9 mph 25.9 mph 56 % 0.0 in 0.0 W/m2 CLR
01:49 22.0 °F 13.1 °F 1017.8 in West 20.4 mph 20.4 mph 57 % 0.0 in 0.0 W/m2 CLR
01:54 21.8 °F 13.2 °F 1017.8 in WNW 25.9 mph 25.9 mph 58 % 0.0 in 0.0 W/m2 CLR
02:04 21.6 °F 13.0 °F 1017.8 in WNW 18.5 mph 18.5 mph 58 % 0.0 in 0.0 W/m2 CLR
02:10 21.6 °F 12.7 °F 1017.8 in WNW 27.8 mph 27.8 mph 57 % 0.0 in 0.0 W/m2 CLR
02:15 21.6 °F 13.0 °F 1018.2 in WNW 20.4 mph 20.4 mph 58 % 0.0 in 0.0 W/m2 CLR
02:20 21.6 °F 12.9 °F 1017.8 in WNW 11.1 mph 11.1 mph 58 % 0.0 in 0.0 W/m2 CLR
02:25 21.3 °F 13.0 °F 1017.8 in WNW 20.9 mph 20.9 mph 59 % 0.0 in 0.0 W/m2 CLR
02:30 21.3 °F 12.9 °F 1017.8 in West 20.4 mph 20.4 mph 59 % 0.0 in 0.0 W/m2 CLR
02:35 21.3 °F 13.2 °F 1017.8 in WNW 25.9 mph 25.9 mph 60 % 0.0 in 0.0 W/m2 CLR
02:40 21.3 °F 13.2 °F 1017.8 in WNW 25.9 mph 25.9 mph 60 % 0.0 in 0.0 W/m2 CLR
02:45 21.2 °F 13.2 °F 1017.8 in WNW 11.3 mph 11.3 mph 60 % 0.0 in 0.0 W/m2 CLR
02:50 21.0 °F 13.2 °F 1017.8 in WNW 18.5 mph 18.5 mph 61 % 0.0 in 0.0 W/m2 CLR
02:55 21.0 °F 13.2 °F 1017.8 in WNW 22.2 mph 22.2 mph 61 % 0.0 in 0.0 W/m2 CLR
03:00 21.0 °F 13.2 °F 1017.8 in WNW 20.4 mph 20.4 mph 61 % 0.0 in 0.0 W/m2 CLR
03:05 20.8 °F 13.3 °F 1017.8 in West 25.7 mph 25.7 mph 62 % 0.0 in 0.0 W/m2 CLR
03:10 20.8 °F 13.2 °F 1017.5 in West 20.9 mph 20.9 mph 62 % 0.0 in 0.0 W/m2 CLR
03:15 20.8 °F 13.1 °F 1017.5 in WNW 20.4 mph 20.4 mph 61 % 0.0 in 0.0 W/m2 CLR
03:20 20.9 °F 13.1 °F 1017.8 in NW 24.1 mph 24.1 mph 61 % 0.0 in 0.0 W/m2 CLR
03:25 20.8 °F 13.3 °F 1017.5 in West 16.7 mph 16.7 mph 62 % 0.0 in 0.0 W/m2 CLR
03:30 20.7 °F 13.2 °F 1017.8 in WNW 29.6 mph 29.6 mph 62 % 0.0 in 0.0 W/m2 CLR
03:35 20.6 °F 13.3 °F 1017.5 in West 22.2 mph 22.2 mph 63 % 0.0 in 0.0 W/m2 CLR
03:40 20.6 °F 13.3 °F 1017.5 in West 18.5 mph 18.5 mph 63 % 0.0 in 0.0 W/m2 CLR
03:45 20.6 °F 13.5 °F 1017.5 in West 19.3 mph 19.3 mph 64 % 0.0 in 0.0 W/m2 CLR
03:50 20.5 °F 13.4 °F 1017.5 in West 24.1 mph 24.1 mph 64 % 0.0 in 0.0 W/m2 CLR
03:55 20.4 °F 13.4 °F 1017.5 in West 20.9 mph 20.9 mph 64 % 0.0 in 0.0 W/m2 CLR
04:00 20.4 °F 13.6 °F 1017.5 in West 27.8 mph 27.8 mph 65 % 0.0 in 0.0 W/m2 CLR
04:05 20.4 °F 13.6 °F 1017.5 in WSW 29.6 mph 29.6 mph 65 % 0.0 in 0.0 W/m2 CLR
04:10 20.3 °F 13.7 °F 1017.5 in West 22.2 mph 22.2 mph 66 % 0.0 in 0.0 W/m2 CLR
04:15 20.2 °F 13.7 °F 1017.8 in WNW 18.5 mph 18.5 mph 66 % 0.0 in 0.0 W/m2 CLR
04:20 20.1 °F 13.7 °F 1017.8 in West 20.4 mph 20.4 mph 67 % 0.0 in 0.0 W/m2 CLR
04:25 19.9 °F 13.8 °F 1017.8 in West 11.1 mph 11.1 mph 68 % 0.0 in 0.0 W/m2 CLR
04:30 19.9 °F 13.8 °F 1017.8 in West 9.3 mph 9.3 mph 68 % 0.0 in 0.0 W/m2 CLR
04:35 19.9 °F 13.8 °F 1017.8 in West 11.1 mph 11.1 mph 68 % 0.0 in 0.0 W/m2 CLR
04:40 19.9 °F 13.8 °F 1017.8 in West 20.4 mph 20.4 mph 68 % 0.0 in 0.0 W/m2 CLR
04:45 19.8 °F 14.0 °F 1017.8 in WSW 6.4 mph 6.4 mph 69 % 0.0 in 0.0 W/m2 CLR
04:50 19.8 °F 13.9 °F 1017.8 in West 20.4 mph 20.4 mph 69 % 0.0 in 0.0 W/m2 CLR
04:55 19.8 °F 14.2 °F 1017.8 in WNW 7.4 mph 7.4 mph 70 % 0.0 in 0.0 W/m2 CLR
05:00 19.7 °F 14.1 °F 1017.8 in West 14.8 mph 14.8 mph 70 % 0.0 in 0.0 W/m2 CLR
05:05 19.7 °F 14.1 °F 1017.8 in West 16.7 mph 16.7 mph 70 % 0.0 in 0.0 W/m2 CLR
05:10 19.6 °F 14.2 °F 1017.8 in West 7.4 mph 7.4 mph 71 % 0.0 in 0.0 W/m2 CLR
05:15 19.6 °F 14.2 °F 1017.8 in Calm     71 % 0.0 in 0.0 W/m2 CLR
05:20 19.4 °F 14.3 °F 1017.8 in SW 5.6 mph 5.6 mph 72 % 0.0 in 0.0 W/m2 CLR
05:25 19.4 °F 14.3 °F 1017.8 in West 18.5 mph 18.5 mph 72 % 0.0 in 0.0 W/m2 CLR
05:30 19.4 °F 14.3 °F 1017.8 in West 14.8 mph 14.8 mph 72 % 0.0 in 0.0 W/m2 CLR
05:35 19.4 °F 14.3 °F 1017.8 in West 14.8 mph 14.8 mph 72 % 0.0 in 0.0 W/m2 CLR
05:40 19.4 °F 14.3 °F 1017.8 in West 18.5 mph 18.5 mph 72 % 0.0 in 0.0 W/m2 CLR
05:45 19.4 °F 14.5 °F 1017.8 in West 18.5 mph 18.5 mph 73 % 0.0 in 0.0 W/m2 CLR
05:50 19.4 °F 14.4 °F 1017.8 in WSW 20.9 mph 20.9 mph 73 % 0.0 in 0.0 W/m2 CLR
05:55 19.5 °F 14.6 °F 1017.8 in WSW 24.1 mph 24.1 mph 73 % 0.0 in 0.0 W/m2 CLR
06:00 19.4 °F 14.5 °F 1017.8 in West 16.7 mph 16.7 mph 73 % 0.0 in 0.0 W/m2 CLR
06:05 19.4 °F 14.5 °F 1017.8 in West 20.4 mph 20.4 mph 73 % 0.0 in 0.0 W/m2 CLR
06:10 19.4 °F 14.4 °F 1017.8 in WSW 19.3 mph 19.3 mph 73 % 0.0 in 0.0 W/m2 CLR
06:15 19.4 °F 14.5 °F 1017.8 in SW 25.9 mph 25.9 mph 73 % 0.0 in 0.0 W/m2 CLR
06:20 19.4 °F 14.5 °F 1017.8 in WSW 25.9 mph 25.9 mph 73 % 0.0 in 0.0 W/m2 CLR
06:25 19.4 °F 14.4 °F 1017.8 in West 16.1 mph 16.1 mph 73 % 0.0 in 0.0 W/m2 CLR
06:30 19.3 °F 14.6 °F 1017.8 in West 19.3 mph 19.3 mph 74 % 0.0 in 0.0 W/m2 CLR
06:32 19.3 °F 14.6 °F 1017.8 in West 16.1 mph 16.1 mph 74 % 0.0 in 0.0 W/m2 CLR
06:37 19.3 °F 14.6 °F 1017.8 in West 22.2 mph 22.2 mph 74 % 0.0 in 0.0 W/m2 OVC
06:42 19.3 °F 14.6 °F 1017.8 in West 25.7 mph 25.7 mph 74 % 0.0 in 0.0 W/m2 OVC
06:47 19.3 °F 14.6 °F 1017.8 in West 20.4 mph 20.4 mph 74 % 0.0 in 0.0 W/m2 OVC
06:52 19.3 °F 14.6 °F 1017.8 in West 18.5 mph 18.5 mph 74 % 0.0 in 5.0 W/m2 OVC
06:57 19.3 °F 14.5 °F 1017.8 in West 24.1 mph 24.1 mph 74 % 0.0 in 9.0 W/m2 BKN
07:02 19.3 °F 14.7 °F 1017.8 in West 24.1 mph 24.1 mph 75 % 0.0 in 11.0 W/m2 BKN
07:07 19.3 °F 14.7 °F 1017.8 in WSW 14.8 mph 14.8 mph 75 % 0.0 in 14.0 W/m2 BKN
07:12 19.3 °F 14.6 °F 1017.8 in SW 7.4 mph 7.4 mph 74 % 0.0 in 16.0 W/m2 BKN
07:17 19.3 °F 14.8 °F 1017.8 in SW 7.4 mph 7.4 mph 75 % 0.0 in 19.0 W/m2 BKN
07:22 19.3 °F 14.7 °F 1017.8 in SW 7.4 mph 7.4 mph 75 % 0.0 in 25.0 W/m2 BKN
07:27 19.3 °F 14.7 °F 1017.8 in SW 19.3 mph 19.3 mph 75 % 0.0 in 30.0 W/m2 BKN
07:32 19.3 °F 14.8 °F 1017.8 in West 11.3 mph 11.3 mph 75 % 0.0 in 40.0 W/m2 BKN
07:37 19.4 °F 14.8 °F 1017.8 in West 13.0 mph 13.0 mph 75 % 0.0 in 53.0 W/m2 SCT
07:42 19.5 °F 14.9 °F 1017.8 in West 9.3 mph 9.3 mph 75 % 0.0 in 63.0 W/m2 SCT
07:47 19.6 °F 15.0 °F 1017.8 in WSW 18.5 mph 18.5 mph 75 % 0.0 in 76.0 W/m2 FEW
07:52 19.7 °F 14.9 °F 1017.8 in West 18.5 mph 18.5 mph 74 % 0.0 in 88.0 W/m2 FEW
07:57 19.8 °F 15.0 °F 1017.8 in West 19.3 mph 19.3 mph 74 % 0.0 in 102.0 W/m2 CLR
08:02 19.8 °F 15.1 °F 1017.8 in West 16.7 mph 16.7 mph 74 % 0.0 in 121.0 W/m2 CLR
08:07 20.0 °F 15.2 °F 1017.8 in West 20.4 mph 20.4 mph 74 % 0.0 in 137.0 W/m2 CLR
08:12 20.1 °F 15.3 °F 1017.8 in West 25.9 mph 25.9 mph 74 % 0.0 in 155.0 W/m2 CLR
08:17 20.3 °F 15.3 °F 1017.8 in WSW 22.2 mph 22.2 mph 73 % 0.0 in 172.0 W/m2 CLR
08:22 20.4 °F 15.4 °F 1017.8 in West 16.7 mph 16.7 mph 73 % 0.0 in 188.0 W/m2 CLR
08:27 20.6 °F 15.6 °F 1017.8 in WNW 31.5 mph 31.5 mph 73 % 0.0 in 207.0 W/m2 CLR
08:32 20.7 °F 15.4 °F 1017.8 in WNW 38.9 mph 38.9 mph 72 % 0.0 in 225.0 W/m2 CLR
08:37 20.8 °F 15.6 °F 1017.8 in West 29.6 mph 29.6 mph 72 % 0.0 in 243.0 W/m2 CLR
08:42 20.9 °F 15.4 °F 1017.8 in WNW 33.3 mph 33.3 mph 71 % 0.0 in 257.0 W/m2 CLR
08:47 21.0 °F 15.6 °F 1017.8 in West 29.0 mph 29.0 mph 71 % 0.0 in 279.0 W/m2 CLR
08:52 21.1 °F 15.7 °F 1017.8 in WNW 37.0 mph 37.0 mph 71 % 0.0 in 292.0 W/m2 CLR
08:57 21.2 °F 15.6 °F 1017.8 in WNW 35.2 mph 35.2 mph 70 % 0.0 in 304.0 W/m2 CLR
09:02 21.3 °F 15.6 °F 1017.8 in WNW 42.6 mph 42.6 mph 70 % 0.0 in 316.0 W/m2 CLR
09:07 21.4 °F 15.7 °F 1017.8 in WNW 31.5 mph 31.5 mph 70 % 0.0 in 271.0 W/m2 CLR
09:12 21.4 °F 15.7 °F 1017.8 in WNW 27.8 mph 27.8 mph 70 % 0.0 in 348.0 W/m2 CLR
09:17 21.7 °F 15.9 °F 1017.8 in WNW 31.5 mph 31.5 mph 70 % 0.0 in 366.0 W/m2 CLR
09:22 21.8 °F 15.8 °F 1017.8 in WNW 33.8 mph 33.8 mph 69 % 0.0 in 385.0 W/m2 CLR
09:27 21.9 °F 15.9 °F 1017.8 in WNW 31.5 mph 31.5 mph 69 % 0.0 in 397.0 W/m2 CLR
09:32 21.9 °F 15.8 °F 1017.8 in WNW 35.2 mph 35.2 mph 68 % 0.0 in 410.0 W/m2 CLR
09:37 22.1 °F 15.9 °F 1017.8 in WNW 33.3 mph 33.3 mph 68 % 0.0 in 429.0 W/m2 CLR
09:42 22.2 °F 16.1 °F 1017.8 in WNW 27.8 mph 27.8 mph 68 % 0.0 in 436.0 W/m2 CLR
09:47 22.3 °F 15.9 °F 1017.8 in NW 37.0 mph 37.0 mph 67 % 0.0 in 452.0 W/m2 CLR
09:52 22.4 °F 15.9 °F 1018.2 in NW 31.5 mph 31.5 mph 67 % 0.0 in 478.0 W/m2 CLR
09:57 22.5 °F 16.1 °F 1017.8 in WNW 29.0 mph 29.0 mph 67 % 0.0 in 374.0 W/m2 CLR
10:02 22.6 °F 16.2 °F 1017.8 in WNW 29.6 mph 29.6 mph 67 % 0.0 in 499.0 W/m2 CLR
10:07 22.8 °F 16.2 °F 1017.8 in WNW 29.6 mph 29.6 mph 66 % 0.0 in 519.0 W/m2 CLR
10:12 23.0 °F 16.1 °F 1017.8 in NNW 38.9 mph 38.9 mph 65 % 0.0 in 541.0 W/m2 CLR
10:17 23.1 °F 16.2 °F 1017.8 in NW 31.5 mph 31.5 mph 65 % 0.0 in 554.0 W/m2 CLR
10:22 23.3 °F 16.1 °F 1017.8 in NW 25.9 mph 25.9 mph 64 % 0.0 in 570.0 W/m2 CLR
10:27 23.5 °F 16.1 °F 1017.8 in NNW 32.2 mph 32.2 mph 63 % 0.0 in 589.0 W/m2 CLR
10:32 23.6 °F 16.2 °F 1017.8 in NW 29.6 mph 29.6 mph 63 % 0.0 in 615.0 W/m2 CLR
10:37 23.7 °F 16.0 °F 1017.8 in NW 24.1 mph 24.1 mph 62 % 0.0 in 656.0 W/m2 CLR
10:42 24.1 °F 16.1 °F 1017.8 in NW 27.8 mph 27.8 mph 61 % 0.0 in 654.0 W/m2 CLR
10:47 24.2 °F 15.9 °F 1017.5 in WNW 31.5 mph 31.5 mph 60 % 0.0 in 663.0 W/m2 CLR
10:52 24.3 °F 15.8 °F 1017.5 in NNW 29.6 mph 29.6 mph 59 % 0.0 in 721.0 W/m2 CLR
10:57 24.3 °F 15.8 °F 1017.5 in NNW 35.4 mph 35.4 mph 59 % 0.0 in 777.0 W/m2 CLR
11:02 24.6 °F 15.5 °F 1017.5 in NNW 38.9 mph 38.9 mph 57 % 0.0 in 724.0 W/m2 CLR
11:07 24.6 °F 15.5 °F 1017.5 in NNW 33.8 mph 33.8 mph 57 % 0.0 in 889.0 W/m2 CLR
11:12 24.5 °F 15.7 °F 1017.5 in NNW 38.9 mph 38.9 mph 58 % 0.0 in 923.0 W/m2 CLR
11:17 24.6 °F 15.7 °F 1017.5 in NNW 31.5 mph 31.5 mph 58 % 0.0 in 410.0 W/m2 CLR
11:23 24.2 °F 15.7 °F 1017.5 in NW 35.2 mph 35.2 mph 59 % 0.0 in 410.0 W/m2 CLR
11:28 24.4 °F 15.8 °F 1017.5 in WNW 35.4 mph 35.4 mph 59 % 0.0 in 798.0 W/m2 CLR
11:33 24.8 °F 16.2 °F 1017.5 in NW 29.0 mph 29.0 mph 59 % 0.0 in 786.0 W/m2 CLR
11:38 24.9 °F 16.3 °F 1017.5 in WNW 29.6 mph 29.6 mph 59 % 0.0 in 796.0 W/m2 CLR
11:43 25.0 °F 15.9 °F 1017.5 in West 29.6 mph 29.6 mph 57 % 0.0 in 831.0 W/m2 CLR
11:48 25.2 °F 15.8 °F 1017.5 in West 42.6 mph 42.6 mph 56 % 0.0 in 824.0 W/m2 CLR
11:53 25.2 °F 15.8 °F 1017.5 in NW 38.9 mph 38.9 mph 56 % 0.0 in 805.0 W/m2 CLR
11:58 25.2 °F 15.3 °F 1017.5 in NNW 40.7 mph 40.7 mph 54 % 0.0 in 817.0 W/m2 CLR
12:03 25.1 °F 15.7 °F 1017.8 in WNW 35.2 mph 35.2 mph 56 % 0.0 in 833.0 W/m2 CLR
12:08 25.1 °F 15.7 °F 1017.5 in WNW 42.6 mph 42.6 mph 56 % 0.0 in 826.0 W/m2 CLR
12:13 25.2 °F 15.8 °F 1017.5 in WNW 37.0 mph 37.0 mph 56 % 0.0 in 831.0 W/m2 CLR
12:18 25.4 °F 16.3 °F 1017.5 in NW 24.1 mph 24.1 mph 57 % 0.0 in 842.0 W/m2 CLR
12:23 25.8 °F 15.8 °F 1017.5 in NNW 38.9 mph 38.9 mph 54 % 0.0 in 867.0 W/m2 CLR
12:28 25.7 °F 15.7 °F 1017.5 in WNW 35.2 mph 35.2 mph 54 % 0.0 in 860.0 W/m2 CLR
12:33 25.6 °F 15.6 °F 1017.5 in NW 37.0 mph 37.0 mph 54 % 0.0 in 863.0 W/m2 CLR
12:38 25.6 °F 15.8 °F 1017.5 in NNW 33.3 mph 33.3 mph 55 % 0.0 in 865.0 W/m2 CLR
12:43 26.0 °F 16.6 °F 1017.2 in WNW 31.5 mph 31.5 mph 56 % 0.0 in 870.0 W/m2 CLR
12:48 26.0 °F 15.7 °F 1017.2 in WNW 38.9 mph 38.9 mph 53 % 0.0 in 889.0 W/m2 CLR
12:53 26.1 °F 16.1 °F 1017.2 in NW 46.3 mph 46.3 mph 54 % 0.0 in 914.0 W/m2 CLR
12:58 26.2 °F 15.9 °F 1017.2 in NW 37.0 mph 37.0 mph 53 % 0.0 in 896.0 W/m2 CLR
13:03 26.3 °F 15.6 °F 1017.2 in NNW 35.2 mph 35.2 mph 52 % 0.0 in 900.0 W/m2 CLR
13:08 26.3 °F 15.7 °F 1017.2 in NW 40.7 mph 40.7 mph 52 % 0.0 in 918.0 W/m2 CLR
13:13 26.4 °F 15.5 °F 1017.2 in NNW 38.9 mph 38.9 mph 51 % 0.0 in 907.0 W/m2 CLR
13:18 26.3 °F 15.4 °F 1017.2 in NW 35.2 mph 35.2 mph 51 % 0.0 in 912.0 W/m2 CLR
13:23 26.5 °F 15.2 °F 1016.8 in NNW 46.3 mph 46.3 mph 50 % 0.0 in 925.0 W/m2 CLR
13:28 26.7 °F 15.4 °F 1016.8 in NNW 33.3 mph 33.3 mph 50 % 0.0 in 923.0 W/m2 CLR
13:33 26.7 °F 15.1 °F 1017.2 in NNW 42.6 mph 42.6 mph 49 % 0.0 in 919.0 W/m2 CLR
13:38 26.7 °F 15.1 °F 1016.8 in WNW 46.3 mph 46.3 mph 49 % 0.0 in 921.0 W/m2 CLR
13:43 26.7 °F 15.1 °F 1016.8 in North 42.6 mph 42.6 mph 49 % 0.0 in 932.0 W/m2 CLR
13:48 26.9 °F 14.6 °F 1016.8 in NW 35.4 mph 35.4 mph 47 % 0.0 in 933.0 W/m2 CLR
13:49 26.9 °F 14.6 °F 1016.8 in NNW 33.3 mph 33.3 mph 47 % 0.0 in 933.0 W/m2 CLR
13:54 26.9 °F 14.7 °F 1016.8 in NW 40.7 mph 40.7 mph 47 % 0.0 in 926.0 W/m2 CLR
13:59 27.0 °F 15.1 °F 1016.8 in NNW 46.3 mph 46.3 mph 48 % 0.0 in 932.0 W/m2 CLR
14:04 26.9 °F 14.7 °F 1016.8 in NNW 35.2 mph 35.2 mph 47 % 0.0 in 935.0 W/m2 CLR
14:09 27.3 °F 15.1 °F 1016.8 in NW 42.6 mph 42.6 mph 47 % 0.0 in 933.0 W/m2 CLR
14:14 27.2 °F 14.6 °F 1016.8 in NW 38.9 mph 38.9 mph 46 % 0.0 in 928.0 W/m2 CLR
14:19 27.3 °F 14.7 °F 1016.8 in WNW 38.6 mph 38.6 mph 46 % 0.0 in 933.0 W/m2 CLR
14:24 27.4 °F 14.8 °F 1016.5 in NW 38.9 mph 38.9 mph 46 % 0.0 in 928.0 W/m2 CLR
14:29 27.5 °F 14.5 °F 1016.8 in NNW 35.2 mph 35.2 mph 45 % 0.0 in 928.0 W/m2 CLR
14:34 27.6 °F 13.9 °F 1016.5 in NNW 48.1 mph 48.1 mph 43 % 0.0 in 926.0 W/m2 CLR
14:39 27.6 °F 14.2 °F 1016.5 in NW 33.3 mph 33.3 mph 44 % 0.0 in 921.0 W/m2 CLR
14:44 27.6 °F 14.3 °F 1016.5 in North 37.0 mph 37.0 mph 44 % 0.0 in 919.0 W/m2 CLR
14:49 27.8 °F 13.7 °F 1016.5 in WNW 35.2 mph 35.2 mph 42 % 0.0 in 916.0 W/m2 CLR
14:54 28.0 °F 13.5 °F 1016.5 in WNW 48.1 mph 48.1 mph 41 % 0.0 in 912.0 W/m2 CLR
14:59 28.0 °F 13.5 °F 1016.5 in North 50.0 mph 50.0 mph 41 % 0.0 in 911.0 W/m2 CLR
15:04 27.9 °F 13.4 °F 1016.5 in NNW 40.7 mph 40.7 mph 41 % 0.0 in 904.0 W/m2 CLR
15:09 28.2 °F 13.7 °F 1016.5 in NW 42.6 mph 42.6 mph 41 % 0.0 in 900.0 W/m2 CLR
15:14 28.2 °F 13.7 °F 1016.5 in North 35.2 mph 35.2 mph 41 % 0.0 in 898.0 W/m2 CLR
15:19 28.2 °F 14.1 °F 1016.1 in WNW 35.2 mph 35.2 mph 42 % 0.0 in 891.0 W/m2 CLR
15:24 28.2 °F 14.4 °F 1016.1 in NNW 33.8 mph 33.8 mph 43 % 0.0 in 886.0 W/m2 CLR
15:29 28.4 °F 14.3 °F 1016.1 in NW 37.0 mph 37.0 mph 42 % 0.0 in 879.0 W/m2 CLR
15:34 28.5 °F 13.9 °F 1016.1 in NNW 29.6 mph 29.6 mph 41 % 0.0 in 872.0 W/m2 CLR
15:39 28.4 °F 13.6 °F 1016.1 in NW 40.7 mph 40.7 mph 40 % 0.0 in 868.0 W/m2 CLR
15:44 28.3 °F 13.8 °F 1016.1 in NW 40.2 mph 40.2 mph 41 % 0.0 in 861.0 W/m2 CLR
15:49 28.2 °F 13.7 °F 1015.8 in NW 29.6 mph 29.6 mph 41 % 0.0 in 854.0 W/m2 CLR
15:54 28.7 °F 13.3 °F 1015.8 in WNW 40.7 mph 40.7 mph 39 % 0.0 in 846.0 W/m2 CLR
15:59 28.7 °F 13.3 °F 1015.8 in NNW 48.1 mph 48.1 mph 39 % 0.0 in 838.0 W/m2 CLR
16:04 28.3 °F 13.1 °F 1016.1 in NW 50.0 mph 50.0 mph 39 % 0.0 in 828.0 W/m2 CLR
16:09 28.3 °F 13.8 °F 1016.1 in NW 30.6 mph 30.6 mph 41 % 0.0 in 816.0 W/m2 CLR
16:10 28.4 °F 13.1 °F 1015.8 in WNW 46.3 mph 46.3 mph 39 % 0.0 in 816.0 W/m2 CLR
16:15 28.4 °F 12.8 °F 1016.1 in NNW 44.4 mph 44.4 mph 38 % 0.0 in 809.0 W/m2 CLR
16:20 28.3 °F 13.0 °F 1016.1 in WNW 46.3 mph 46.3 mph 39 % 0.0 in 798.0 W/m2 CLR
16:25 28.3 °F 13.0 °F 1016.1 in NNW 48.1 mph 48.1 mph 39 % 0.0 in 791.0 W/m2 CLR
16:30 28.3 °F 13.4 °F 1016.1 in NNW 42.6 mph 42.6 mph 40 % 0.0 in 780.0 W/m2 CLR
16:35 28.3 °F 13.4 °F 1015.8 in NNW 42.6 mph 42.6 mph 40 % 0.0 in 768.0 W/m2 CLR
16:40 28.2 °F 13.3 °F 1015.8 in NNW 37.0 mph 37.0 mph 40 % 0.0 in 756.0 W/m2 CLR
16:45 28.4 °F 13.6 °F 1015.8 in WNW 38.9 mph 38.9 mph 40 % 0.0 in 745.0 W/m2 CLR
16:50 28.5 °F 12.8 °F 1015.8 in NNW 37.0 mph 37.0 mph 38 % 0.0 in 738.0 W/m2 CLR
16:55 28.5 °F 12.4 °F 1015.8 in NW 40.7 mph 40.7 mph 37 % 0.0 in 726.0 W/m2 CLR
17:00 28.4 °F 11.9 °F 1015.8 in NNW 42.6 mph 42.6 mph 36 % 0.0 in 712.0 W/m2 CLR
17:05 28.5 °F 12.0 °F 1015.8 in NW 42.6 mph 42.6 mph 36 % 0.0 in 701.0 W/m2 CLR
17:10 28.7 °F 12.1 °F 1015.5 in NW 33.3 mph 33.3 mph 36 % 0.0 in 689.0 W/m2 CLR
17:15 28.7 °F 12.1 °F 1015.5 in NW 38.9 mph 38.9 mph 36 % 0.0 in 675.0 W/m2 CLR
17:20 28.8 °F 12.6 °F 1015.8 in NW 33.3 mph 33.3 mph 37 % 0.0 in 661.0 W/m2 CLR
17:25 28.8 °F 12.6 °F 1015.5 in NNW 33.3 mph 33.3 mph 37 % 0.0 in 650.0 W/m2 CLR
17:40 28.4 °F 11.9 °F 1015.5 in NW 41.8 mph 41.8 mph 36 % 0.0 in 608.0 W/m2 OVC
17:45 28.5 °F 12.0 °F 1015.5 in NNW 41.8 mph 41.8 mph 36 % 0.0 in 592.0 W/m2 CLR
17:50 28.4 °F 11.9 °F 1015.5 in NNW 45.1 mph 45.1 mph 36 % 0.0 in 580.0 W/m2 CLR
17:55 28.3 °F 12.7 °F 1015.5 in NNW 43.4 mph 43.4 mph 38 % 0.0 in 563.0 W/m2 CLR
18:00 28.2 °F 12.2 °F 1015.8 in NNW 41.8 mph 41.8 mph 37 % 0.0 in 554.0 W/m2 CLR
18:05 28.1 °F 11.6 °F 1015.5 in NW 43.4 mph 43.4 mph 36 % 0.0 in 536.0 W/m2 CLR
18:10 28.1 °F 12.4 °F 1015.5 in NNW 37.0 mph 37.0 mph 38 % 0.0 in 520.0 W/m2 CLR
18:16 28.1 °F 12.4 °F 1015.5 in NW 46.3 mph 46.3 mph 38 % 0.0 in 506.0 W/m2 CLR
18:21 27.9 °F 13.1 °F 1015.5 in NW 31.5 mph 31.5 mph 40 % 0.0 in 492.0 W/m2 CLR
18:26 28.0 °F 12.8 °F 1015.8 in NNW 43.4 mph 43.4 mph 39 % 0.0 in 480.0 W/m2 CLR
18:31 27.8 °F 12.6 °F 1015.8 in NNW 42.6 mph 42.6 mph 39 % 0.0 in 461.0 W/m2 CLR
18:36 27.7 °F 12.9 °F 1015.8 in NNW 48.1 mph 48.1 mph 40 % 0.0 in 443.0 W/m2 CLR
18:41 27.7 °F 12.8 °F 1015.5 in NNW 42.6 mph 42.6 mph 40 % 0.0 in 434.0 W/m2 CLR
18:46 27.8 °F 12.6 °F 1015.5 in WNW 31.5 mph 31.5 mph 39 % 0.0 in 415.0 W/m2 CLR
18:51 27.7 °F 12.5 °F 1015.8 in NW 41.8 mph 41.8 mph 39 % 0.0 in 396.0 W/m2 CLR
18:56 27.4 °F 12.2 °F 1015.8 in NNW 42.6 mph 42.6 mph 39 % 0.0 in 383.0 W/m2 CLR
19:01 27.3 °F 12.6 °F 1015.8 in NW 31.5 mph 31.5 mph 40 % 0.0 in 364.0 W/m2 CLR
19:06 27.2 °F 12.4 °F 1015.8 in NW 40.2 mph 40.2 mph 40 % 0.0 in 350.0 W/m2 CLR
19:11 27.2 °F 12.4 °F 1015.8 in NW 38.9 mph 38.9 mph 40 % 0.0 in 336.0 W/m2 CLR
19:16 27.2 °F 12.4 °F 1015.5 in WNW 27.8 mph 27.8 mph 40 % 0.0 in 318.0 W/m2 CLR
19:21 27.2 °F 12.8 °F 1015.5 in NW 38.9 mph 38.9 mph 41 % 0.0 in 302.0 W/m2 CLR
19:26 27.2 °F 12.8 °F 1015.5 in NNW 50.0 mph 50.0 mph 41 % 0.0 in 287.0 W/m2 CLR
19:31 27.0 °F 12.6 °F 1015.5 in NW 48.3 mph 48.3 mph 41 % 0.0 in 267.0 W/m2 CLR
19:36 26.8 °F 12.8 °F 1015.8 in NW 42.6 mph 42.6 mph 42 % 0.0 in 253.0 W/m2 CLR
19:41 26.6 °F 12.7 °F 1015.8 in NW 42.6 mph 42.6 mph 42 % 0.0 in 237.0 W/m2 CLR
19:46 26.7 °F 12.7 °F 1015.8 in NW 38.6 mph 38.6 mph 42 % 0.0 in 220.0 W/m2 CLR
19:51 26.7 °F 12.7 °F 1015.8 in NNW 31.5 mph 31.5 mph 42 % 0.0 in 202.0 W/m2 CLR
19:56 26.6 °F 12.2 °F 1015.8 in NNW 42.6 mph 42.6 mph 41 % 0.0 in 185.0 W/m2 CLR
20:01 26.3 °F 12.3 °F 1015.8 in NNW 38.9 mph 38.9 mph 42 % 0.0 in 163.0 W/m2 CLR
20:06 26.2 °F 12.6 °F 1015.8 in NW 25.9 mph 25.9 mph 43 % 0.0 in 149.0 W/m2 CLR
20:11 26.2 °F 12.6 °F 1015.8 in NW 31.5 mph 31.5 mph 43 % 0.0 in 134.0 W/m2 CLR
20:16 26.1 °F 12.8 °F 1015.8 in NW 31.5 mph 31.5 mph 44 % 0.0 in 114.0 W/m2 CLR
20:21 25.9 °F 12.8 °F 1016.1 in WNW 27.8 mph 27.8 mph 44 % 0.0 in 98.0 W/m2 CLR
20:26 25.8 °F 12.9 °F 1016.1 in NNW 31.5 mph 31.5 mph 45 % 0.0 in 84.0 W/m2 FEW
20:31 25.6 °F 12.7 °F 1016.1 in NW 38.6 mph 38.6 mph 45 % 0.0 in 70.0 W/m2 FEW
20:36 25.3 °F 12.9 °F 1016.1 in NNW 40.7 mph 40.7 mph 46 % 0.0 in 56.0 W/m2 SCT
20:41 25.1 °F 12.7 °F 1016.1 in NW 40.7 mph 40.7 mph 46 % 0.0 in 42.0 W/m2 BKN
20:46 24.9 °F 13.2 °F 1016.1 in NNW 44.4 mph 44.4 mph 48 % 0.0 in 33.0 W/m2 BKN
20:51 24.8 °F 13.1 °F 1016.1 in NW 33.8 mph 33.8 mph 48 % 0.0 in 25.0 W/m2 BKN
20:56 24.6 °F 12.6 °F 1016.5 in NW 44.4 mph 44.4 mph 47 % 0.0 in 18.0 W/m2 BKN
21:01 24.4 °F 12.4 °F 1016.5 in WNW 35.2 mph 35.2 mph 47 % 0.0 in 12.0 W/m2 BKN
21:06 24.3 °F 12.6 °F 1016.5 in NW 37.0 mph 37.0 mph 48 % 0.0 in 11.0 W/m2 BKN
21:11 24.2 °F 12.4 °F 1016.5 in NW 38.9 mph 38.9 mph 48 % 0.0 in 9.0 W/m2 BKN
21:16 24.1 °F 12.7 °F 1016.5 in WNW 37.0 mph 37.0 mph 49 % 0.0 in 7.0 W/m2 BKN
21:21 23.9 °F 12.5 °F 1016.5 in NW 42.6 mph 42.6 mph 49 % 0.0 in 5.0 W/m2 OVC
21:26 23.8 °F 12.7 °F 1016.5 in NW 37.0 mph 37.0 mph 50 % 0.0 in 0.0 W/m2 OVC
21:32 23.7 °F 12.6 °F 1016.8 in NNW 31.5 mph 31.5 mph 50 % 0.0 in 0.0 W/m2 OVC
21:37 23.6 °F 12.6 °F 1016.8 in NW 42.6 mph 42.6 mph 50 % 0.0 in 0.0 W/m2 CLR
21:42 23.5 °F 12.8 °F 1016.8 in NW 27.8 mph 27.8 mph 51 % 0.0 in 0.0 W/m2 CLR
21:47 23.3 °F 12.6 °F 1016.8 in NW 33.3 mph 33.3 mph 51 % 0.0 in 0.0 W/m2 CLR
21:52 23.3 °F 12.6 °F 1016.8 in WNW 25.9 mph 25.9 mph 51 % 0.0 in 0.0 W/m2 CLR
21:57 23.2 °F 12.8 °F 1016.8 in NW 38.9 mph 38.9 mph 52 % 0.0 in 0.0 W/m2 CLR
22:02 23.0 °F 12.6 °F 1016.8 in WNW 42.6 mph 42.6 mph 52 % 0.0 in 0.0 W/m2 CLR
22:07 22.9 °F 12.8 °F 1017.2 in NW 31.5 mph 31.5 mph 53 % 0.0 in 0.0 W/m2 CLR
22:12 22.7 °F 12.9 °F 1017.2 in NW 32.2 mph 32.2 mph 54 % 0.0 in 0.0 W/m2 CLR
22:17 22.6 °F 13.1 °F 1017.2 in NW 31.5 mph 31.5 mph 55 % 0.0 in 0.0 W/m2 CLR
22:22 22.4 °F 12.9 °F 1017.5 in WNW 29.6 mph 29.6 mph 55 % 0.0 in 0.0 W/m2 CLR
22:27 22.4 °F 12.9 °F 1017.5 in NW 38.9 mph 38.9 mph 55 % 0.0 in 0.0 W/m2 CLR
22:32 22.3 °F 13.1 °F 1017.5 in WNW 22.2 mph 22.2 mph 56 % 0.0 in 0.0 W/m2 CLR
22:37 22.2 °F 13.0 °F 1017.5 in West 37.0 mph 37.0 mph 56 % 0.0 in 0.0 W/m2 CLR
22:42 22.2 °F 13.3 °F 1017.5 in NW 31.5 mph 31.5 mph 57 % 0.0 in 0.0 W/m2 CLR
22:47 22.1 °F 13.2 °F 1017.5 in NW 29.6 mph 29.6 mph 57 % 0.0 in 0.0 W/m2 CLR
22:52 22.1 °F 13.4 °F 1017.5 in WNW 27.8 mph 27.8 mph 58 % 0.0 in 0.0 W/m2 CLR
22:57 21.9 °F 13.3 °F 1017.8 in WNW 31.5 mph 31.5 mph 58 % 0.0 in 0.0 W/m2 CLR
23:02 21.9 °F 13.3 °F 1017.8 in WNW 25.9 mph 25.9 mph 58 % 0.0 in 0.0 W/m2 CLR
23:07 21.8 °F 13.4 °F 1017.8 in WNW 27.8 mph 27.8 mph 59 % 0.0 in 0.0 W/m2 CLR
23:12 21.6 °F 13.3 °F 1017.8 in WNW 25.9 mph 25.9 mph 59 % 0.0 in 0.0 W/m2 CLR
23:17 21.5 °F 13.4 °F 1017.8 in WNW 29.6 mph 29.6 mph 60 % 0.0 in 0.0 W/m2 CLR
23:22 21.4 °F 13.3 °F 1017.8 in WNW 37.0 mph 37.0 mph 60 % 0.0 in 0.0 W/m2 CLR
23:27 21.3 °F 13.4 °F 1017.8 in NW 27.8 mph 27.8 mph 61 % 0.0 in 0.0 W/m2 CLR
23:32 21.2 °F 13.3 °F 1017.8 in NW 44.4 mph 44.4 mph 61 % 0.0 in 0.0 W/m2 CLR
23:37 21.1 °F 13.5 °F 1017.8 in WNW 31.5 mph 31.5 mph 62 % 0.0 in 0.0 W/m2 CLR
23:42 21.0 °F 13.4 °F 1017.8 in West 33.3 mph 33.3 mph 62 % 0.0 in 0.0 W/m2 CLR
23:47 20.9 °F 13.3 °F 1018.2 in WNW 33.3 mph 33.3 mph 62 % 0.0 in 0.0 W/m2 CLR
23:52 20.8 °F 13.5 °F 1018.2 in WNW 45.1 mph 45.1 mph 63 % 0.0 in 0.0 W/m2 CLR
23:57 20.7 °F 13.4 °F 1018.2 in WNW 33.3 mph 33.3 mph 63 % 0.0 in 0.0 W/m2 CLR
Lo Temps de Massalio
Compliments of Weather Underground - 1.25 mb